Time;durP1;ratioP1;P1;durP2;ratioP2;P2;SDS_P1;SDS_P2;PMS_P1;PMS_P2;Temp;Humidity;BMP_temperature;BMP_pressure;BME280_temperature;BME280_humidity;BME280_pressure;Samples;Min_cycle;Max_cycle;Signal;HPM_P1;HPM_P2
2022/04/08 00:39:21;;;;;;;14.60;2.60;;;;;;;5.33;85.03;99804.44;4720377;25;20062;-84
2022/04/08 00:41:47;;;;;;;14.38;2.47;;;;;;;5.46;84.55;99830.97;4665538;30;20109;-84
2022/04/08 00:44:13;;;;;;;14.95;3.08;;;;;;;5.47;84.47;99826.69;4665439;30;20552;-84
2022/04/08 00:46:38;;;;;;;13.02;3.30;;;;;;;5.21;84.25;99794.91;4665476;30;20181;-82
2022/04/08 00:49:04;;;;;;;12.50;2.70;;;;;;;5.45;83.69;99833.63;4665468;30;20165;-84
2022/04/08 00:51:31;;;;;;;14.32;2.95;;;;;;;5.08;83.88;99778.59;4664011;30;20117;-84
2022/04/08 00:53:58;;;;;;;16.63;3.45;;;;;;;5.42;84.00;99839.75;4665138;30;20477;-84
2022/04/08 00:56:24;;;;;;;15.57;2.90;;;;;;;5.15;84.03;99805.50;4665466;30;20034;-83
2022/04/08 00:58:50;;;;;;;15.88;3.03;;;;;;;5.01;83.00;99787.53;4665715;30;20031;-83
2022/04/08 01:01:16;;;;;;;13.75;2.75;;;;;;;5.30;83.03;99857.53;4665302;30;20521;-83
2022/04/08 01:03:44;;;;;;;17.63;2.63;;;;;;;5.14;83.14;99855.84;4665554;30;20400;-84
2022/04/08 01:06:12;;;;;;;14.43;3.10;;;;;;;5.13;83.33;99861.88;4663854;30;20043;-84
2022/04/08 01:08:38;;;;;;;14.23;2.90;;;;;;;4.92;83.83;99840.06;4663896;30;20520;-83
2022/04/08 01:11:07;;;;;;;14.30;2.70;;;;;;;4.84;84.58;99842.19;4664217;30;20038;-83
2022/04/08 01:13:33;;;;;;;14.98;2.40;;;;;;;5.05;84.51;99874.28;4665074;30;20061;-83
2022/04/08 01:15:59;;;;;;;18.90;3.97;;;;;;;5.07;85.12;99879.31;4663861;30;20408;-84
2022/04/08 01:18:24;;;;;;;19.38;3.83;;;;;;;4.78;85.10;99845.91;4665187;30;20035;-83
2022/04/08 01:20:52;;;;;;;16.60;2.83;;;;;;;4.96;84.86;99879.91;4650080;30;20034;-83
2022/04/08 01:23:20;;;;;;;16.90;2.55;;;;;;;4.82;85.16;99865.31;4665012;30;20038;-84
2022/04/08 01:25:45;;;;;;;17.30;3.08;;;;;;;5.02;85.67;99888.97;4665282;30;20403;-84
2022/04/08 01:28:11;;;;;;;17.10;2.85;;;;;;;5.03;85.93;99886.34;4664847;30;20050;-84
2022/04/08 01:30:48;;;;;;;18.38;3.72;;;;;;;5.07;86.75;99900.59;4664948;30;20037;-83
2022/04/08 01:33:16;;;;;;;14.32;2.92;;;;;;;5.04;87.95;99905.88;4665078;30;20039;-84
2022/04/08 01:38:41;;;;;;;13.98;2.63;;;;;;;4.96;89.18;99899.53;4647908;28;20069;-84
2022/04/08 01:41:30;;;;;;;16.25;2.85;;;;;;;4.85;89.39;99908.63;4668191;30;20097;-84
2022/04/08 01:44:11;;;;;;;17.00;3.05;;;;;;;4.48;89.52;99873.13;4666954;30;20121;-84
2022/04/08 01:46:43;;;;;;;15.50;3.17;;;;;;;4.22;90.06;99847.19;4668153;30;20137;-84
2022/04/08 01:49:20;;;;;;;12.85;2.65;;;;;;;3.40;90.68;99716.97;4668272;30;20074;-84
2022/04/08 01:52:42;;;;;;;14.77;2.88;;;;;;;4.56;91.19;99915.28;4668010;30;20038;-83
2022/04/08 01:55:48;;;;;;;18.13;2.85;;;;;;;4.49;91.41;99913.94;4667750;30;20047;-84
2022/04/08 02:16:57;;;;;;;12.70;2.20;;;;;;;3.93;88.26;99897.28;4702105;30;20060;-83
2022/04/08 02:22:54;;;;;;;11.98;2.42;;;;;;;2.88;90.36;99759.56;4702483;30;20045;-84
2022/04/08 02:25:19;;;;;;;11.80;2.00;;;;;;;3.28;90.26;99829.06;4701795;30;20506;-83
2022/04/08 02:27:54;;;;;;;9.30;1.60;;;;;;;3.94;90.83;99936.41;4701985;30;20030;-83
2022/04/08 02:30:28;;;;;;;7.25;1.42;;;;;;;2.70;90.85;99755.34;4701816;30;20034;-83
2022/04/08 02:43:59;;;;;;;6.43;1.80;;;;;;;3.62;92.54;99936.25;4702067;30;20076;-84
2022/04/08 02:46:33;;;;;;;9.05;1.95;;;;;;;2.46;93.07;99781.09;4701755;30;20087;-84
2022/04/08 02:49:07;;;;;;;6.03;1.83;;;;;;;2.00;92.98;99737.34;4699298;30;20535;-84
2022/04/08 02:51:32;;;;;;;7.38;1.77;;;;;;;2.13;93.52;99760.53;4698384;30;20166;-84
2022/04/08 02:54:37;;;;;;;9.85;2.00;;;;;;;2.03;93.65;99746.56;4699404;30;20071;-84
2022/04/08 03:00:06;;;;;;;11.85;2.30;;;;;;;3.24;93.92;99950.00;4447432;28;20059;-83
2022/04/08 03:02:38;;;;;;;8.57;1.98;;;;;;;2.12;94.15;99783.53;4666935;30;20045;-84
2022/04/08 03:13:35;;;;;;;12.13;2.60;;;;;;;1.76;95.42;99757.97;4701422;30;20052;-83
2022/04/08 03:32:55;;;;;;;13.13;3.45;;;;;;;2.72;97.75;99977.88;4825148;25;20539;-83
2022/04/08 03:35:23;;;;;;;14.98;3.60;;;;;;;1.94;97.44;99861.53;4666193;30;20038;-83
2022/04/08 03:38:07;;;;;;;15.00;3.10;;;;;;;1.75;98.04;99841.13;4665948;30;20042;-84
2022/04/08 03:40:35;;;;;;;14.73;3.35;;;;;;;1.36;98.52;99778.31;4666429;30;20038;-83
2022/04/08 03:43:13;;;;;;;16.70;3.20;;;;;;;1.39;98.36;99788.38;4666141;30;20503;-84
2022/04/08 03:45:38;;;;;;;16.85;2.97;;;;;;;1.50;98.27;99804.91;4666342;30;20056;-83
2022/04/08 03:51:54;;;;;;;17.60;3.40;;;;;;;2.54;98.95;100000.72;4666198;30;20053;-83
2022/04/08 03:54:23;;;;;;;12.98;3.03;;;;;;;1.27;98.47;99799.03;4666240;30;20050;-83
2022/04/08 03:56:48;;;;;;;21.75;3.45;;;;;;;1.30;98.78;99801.47;4665855;30;20042;-83
2022/04/08 04:00:07;;;;;;;17.35;2.90;;;;;;;2.50;99.05;100001.75;4671979;25;20420;-83
2022/04/08 04:02:55;;;;;;;11.90;2.95;;;;;;;2.50;99.14;99999.19;4665618;30;20516;-83
2022/04/08 04:09:47;;;;;;;17.33;3.63;;;;;;;1.21;98.80;99803.56;4665900;30;20508;-81
2022/04/08 04:12:15;;;;;;;17.05;3.35;;;;;;;1.18;98.52;99796.03;4629780;30;20413;-83
2022/04/08 04:14:41;;;;;;;11.07;3.10;;;;;;;1.91;98.86;99917.69;4629926;31;20058;-83
2022/04/08 04:17:43;;;;;;;18.90;4.20;;;;;;;2.34;99.12;99994.81;4629985;31;20036;-83
2022/04/08 04:20:12;;;;;;;13.90;3.75;;;;;;;2.28;98.64;99996.75;4629941;31;20160;-83
2022/04/08 04:23:06;;;;;;;12.50;3.35;;;;;;;2.25;98.59;99988.38;4615951;31;20043;-83
2022/04/08 04:26:15;;;;;;;13.13;3.97;;;;;;;2.22;99.05;99989.34;4601976;31;20047;-84
2022/04/08 04:34:53;;;;;;;12.63;3.70;;;;;;;2.17;98.87;99991.28;4722425;25;20065;-81
2022/04/08 04:37:23;;;;;;;17.85;3.97;;;;;;;1.12;98.29;99825.09;4700010;30;20046;-84
2022/04/08 04:39:51;;;;;;;12.55;3.55;;;;;;;1.29;98.52;99854.94;4699804;30;20032;-87
2022/04/08 04:42:27;;;;;;;12.07;3.95;;;;;;;1.81;98.52;99939.31;4699689;30;20037;-88
2022/04/08 04:45:04;;;;;;;14.80;4.15;;;;;;;1.61;98.53;99909.59;4682964;30;20053;-86
2022/04/08 04:48:00;;;;;;;11.45;3.40;;;;;;;2.13;98.67;99997.38;4699662;30;20475;-88
2022/04/08 04:54:28;;;;;;;13.93;4.20;;;;;;;2.14;98.96;100000.75;4700146;30;20041;-88
2022/04/08 04:57:49;;;;;;;16.40;4.40;;;;;;;2.11;99.17;100000.88;4699800;30;20036;-88
2022/04/08 05:00:24;;;;;;;14.88;4.32;;;;;;;1.55;99.37;99914.94;4701270;30;20128;-84
2022/04/08 05:03:06;;;;;;;14.70;4.80;;;;;;;1.64;99.70;99927.28;4703440;30;20042;-86
2022/04/08 05:06:14;;;;;;;15.52;5.18;;;;;;;2.07;100.00;99991.72;4700422;30;20383;-88
2022/04/08 05:08:47;;;;;;;13.30;5.15;;;;;;;1.64;99.90;99929.81;4699115;30;20041;-83
2022/04/08 05:11:13;;;;;;;14.57;5.32;;;;;;;1.65;99.97;99937.38;4699298;30;20150;-88
2022/04/08 05:20:06;;;;;;;17.55;6.50;;;;;;;0.86;100.00;99799.00;4677395;30;20612;-85
2022/04/08 05:22:35;;;;;;;15.63;5.50;;;;;;;1.68;100.00;99919.47;4649597;30;20114;-82
2022/04/08 05:25:03;;;;;;;17.45;6.20;;;;;;;2.22;100.00;99999.53;4634508;30;20148;-81
2022/04/08 05:27:35;;;;;;;16.67;6.15;;;;;;;2.01;100.00;99965.59;4649367;30;20540;-83
2022/04/08 05:30:12;;;;;;;16.23;5.80;;;;;;;2.11;99.96;99960.13;4649128;30;20046;-83
2022/04/08 05:32:38;;;;;;;18.80;6.38;;;;;;;2.24;100.00;99956.16;4649212;30;20069;-84
2022/04/08 05:35:27;;;;;;;12.90;5.80;;;;;;;2.63;99.66;99994.38;4649258;30;20035;-84
2022/04/08 05:37:53;;;;;;;15.00;5.28;;;;;;;2.33;98.79;99911.66;4649688;30;20126;-84
2022/04/08 05:40:26;;;;;;;15.32;5.22;;;;;;;2.36;98.56;99889.44;4648900;30;20568;-83
2022/04/08 05:43:21;;;;;;;14.90;5.78;;;;;;;3.07;97.41;99976.31;4649307;30;20129;-83
2022/04/08 05:46:27;;;;;;;16.80;5.45;;;;;;;3.23;96.36;99976.41;4649343;30;20046;-83
2022/04/08 05:59:06;;;;;;;14.52;5.47;;;;;;;2.48;93.68;99788.66;4688444;30;20036;-84
2022/04/08 06:01:50;;;;;;;13.88;5.45;;;;;;;3.07;93.62;99872.56;4702186;30;20076;-84
2022/04/08 06:04:27;;;;;;;16.75;5.70;;;;;;;2.86;92.71;99808.09;4702000;30;20072;-84
2022/04/08 06:06:55;;;;;;;15.68;5.75;;;;;;;2.85;92.09;99780.94;4701942;30;20507;-84
2022/04/08 06:09:23;;;;;;;15.15;5.40;;;;;;;3.85;90.82;99890.91;4701910;30;20506;-84
2022/04/08 06:12:27;;;;;;;15.15;5.53;;;;;;;3.72;89.86;99835.31;4701900;30;20041;-84
2022/04/08 06:18:52;;;;;;;15.02;5.72;;;;;;;5.66;86.69;99963.00;4648708;30;20211;-84
2022/04/08 06:21:20;;;;;;;10.35;5.63;;;;;;;6.78;79.99;99882.88;4648637;30;20403;-84
2022/04/08 06:23:51;;;;;;;12.52;6.85;;;;;;;7.66;76.10;99842.13;4648331;30;20037;-83
2022/04/08 06:26:26;;;;;;;14.00;5.60;;;;;;;7.91;72.59;99782.19;4648668;30;20476;-85
2022/04/08 06:28:58;;;;;;;14.35;5.60;;;;;;;8.29;69.80;99784.69;4648590;30;20122;-84
2022/04/08 06:31:28;;;;;;;14.60;6.35;;;;;;;9.46;67.44;99917.88;4648403;30;20063;-83
2022/04/08 06:33:54;;;;;;;12.38;6.68;;;;;;;9.87;65.77;99895.13;4639033;30;20082;-83
2022/04/08 06:36:19;;;;;;;12.65;6.05;;;;;;;10.03;62.92;99820.84;4631343;31;20098;-84
2022/04/08 06:42:26;;;;;;;13.80;7.03;;;;;;;11.54;60.49;99890.66;4665254;30;20130;-83
2022/04/08 06:45:29;;;;;;;10.73;6.55;;;;;;;10.09;62.59;99758.44;4664576;30;20043;-84
2022/04/08 06:47:55;;;;;;;12.85;6.65;;;;;;;9.72;61.73;99799.13;4665252;30;20034;-84
2022/04/08 06:51:00;;;;;;;14.77;7.18;;;;;;;9.46;64.76;99758.09;4665134;30;20057;-85
2022/04/08 06:53:45;;;;;;;18.50;7.78;;;;;;;9.96;64.33;99833.38;4665182;30;20105;-84
2022/04/08 06:56:45;;;;;;;13.73;7.90;;;;;;;9.93;65.95;99935.91;4665203;30;20386;-83
2022/04/08 07:02:57;;;;;;;18.27;9.77;;;;;;;7.20;71.38;99765.56;4648314;30;20046;-84
2022/04/08 07:05:51;;;;;;;19.67;9.25;;;;;;;7.73;73.37;99921.28;4621901;30;20157;-84
2022/04/08 07:11:02;;;;;;;19.90;8.80;;;;;;;6.09;76.12;99760.66;4647287;30;20580;-84
2022/04/08 07:13:55;;;;;;;17.92;9.10;;;;;;;7.14;77.15;99937.97;4647940;30;20122;-84
2022/04/08 07:20:00;;;;;;;16.38;8.48;;;;;;;6.87;78.02;99937.94;4660923;30;20101;-83
2022/04/08 07:26:05;;;;;;;18.38;8.77;;;;;;;5.80;78.31;99754.72;4664810;30;20057;-84
2022/04/08 07:28:51;;;;;;;16.40;8.65;;;;;;;6.88;78.67;99927.59;4664570;30;20511;-84
2022/04/08 07:31:44;;;;;;;13.30;8.45;;;;;;;6.91;78.55;99924.00;4664211;30;20990;-83
2022/04/08 07:38:27;;;;;;;15.95;7.90;;;;;;;6.87;78.45;99930.22;4679937;30;20053;-83
2022/04/08 07:41:15;;;;;;;15.70;7.82;;;;;;;5.55;78.96;99729.75;4681304;30;20050;-83
2022/04/08 07:43:58;;;;;;;15.95;7.50;;;;;;;5.76;78.85;99751.50;4681135;30;20077;-81
2022/04/08 07:47:01;;;;;;;11.82;7.68;;;;;;;7.00;79.11;99932.88;4681206;30;20030;-83
2022/04/08 07:52:28;;;;;;;16.83;7.85;;;;;;;7.16;77.91;99929.22;4683163;30;20081;-84
2022/04/08 08:06:00;;;;;;;13.85;6.70;;;;;;;7.15;76.61;99925.03;4683206;30;20115;-83
2022/04/08 08:08:35;;;;;;;17.42;6.95;;;;;;;6.09;76.58;99752.13;4663936;30;20042;-83
2022/04/08 08:12:10;;;;;;;15.95;7.68;;;;;;;7.24;77.22;99912.53;4663734;30;20124;-83
2022/04/08 08:14:54;;;;;;;15.02;6.80;;;;;;;6.08;76.27;99730.00;4649573;30;20121;-83
2022/04/08 08:18:00;;;;;;;12.90;6.25;;;;;;;7.24;75.82;99915.91;4649146;30;20030;-83
2022/04/08 08:23:49;;;;;;;14.05;6.53;;;;;;;7.33;75.31;99912.75;4663167;30;20043;-83
2022/04/08 08:26:20;;;;;;;12.90;6.15;;;;;;;6.68;75.32;99792.00;4663708;30;20078;-82
2022/04/08 08:29:09;;;;;;;;;;;;;;;7.63;75.40;99909.94;4664126;30;20040;-83
2022/04/08 08:31:34;;;;;;;13.18;6.70;;;;;;;7.64;74.42;99916.72;4663366;30;19920;-83
2022/04/08 08:34:15;;;;;;;16.15;7.10;;;;;;;7.40;75.06;99843.84;4674848;25;20061;-83
2022/04/08 08:37:19;;;;;;;13.57;6.97;;;;;;;6.84;73.32;99731.09;4682343;30;20034;-84
2022/04/08 08:40:29;;;;;;;14.30;6.28;;;;;;;6.87;73.38;99722.38;4682204;30;20507;-83
2022/04/08 08:43:02;;;;;;;16.13;6.47;;;;;;;7.19;72.23;99746.75;4682852;30;20034;-83
2022/04/08 08:46:10;;;;;;;16.02;6.53;;;;;;;7.04;72.74;99703.28;4681290;30;20037;-84
2022/04/08 08:49:29;;;;;;;12.65;6.43;;;;;;;8.37;72.60;99885.31;4680313;30;20037;-83
2022/04/08 08:52:25;;;;;;;12.85;5.40;;;;;;;7.88;70.63;99795.25;4681279;30;20158;-83
2022/04/08 08:54:54;;;;;;;11.18;5.18;;;;;;;8.02;70.05;99820.81;4681119;30;20041;-83
2022/04/08 08:57:45;;;;;;;12.00;5.20;;;;;;;8.49;69.46;99869.03;4682256;30;20045;-83
2022/04/08 09:00:39;;;;;;;12.18;5.78;;;;;;;7.41;68.75;99689.63;4682557;30;20038;-83
2022/04/08 09:03:07;;;;;;;14.50;5.55;;;;;;;7.46;69.60;99679.84;4682219;30;20088;-83
2022/04/08 09:05:52;;;;;;;12.15;4.75;;;;;;;7.63;68.62;99698.44;4681990;30;20034;-83
2022/04/08 09:09:22;;;;;;;;;;;;;;;;;;;;;
2022/04/08 09:12:27;;;;;;;12.75;5.40;;;;;;;8.42;66.77;99821.50;4679695;30;20056;-83
2022/04/08 09:14:55;;;;;;;11.75;4.20;;;;;;;7.47;66.69;99662.69;4656524;30;20129;-83
2022/04/08 09:21:39;;;;;;;11.27;4.82;;;;;;;8.10;66.99;99728.56;4682366;30;20057;-83
2022/04/08 09:27:55;;;;;;;9.88;3.75;;;;;;;9.18;65.75;99858.97;4682498;30;20057;-82
2022/04/08 09:31:04;;;;;;;10.90;4.88;;;;;;;9.27;66.75;99849.75;4680735;30;20038;-84
2022/04/08 09:34:29;;;;;;;11.55;3.90;;;;;;;9.18;64.20;99846.09;4681743;30;20038;-83
2022/04/08 09:56:23;;;;;;;9.77;3.70;;;;;;;7.84;64.24;99683.28;4673103;24;20054;-83
2022/04/08 10:00:02;;;;;;;9.70;4.03;;;;;;;7.68;65.21;99666.38;4664804;30;20065;-84
2022/04/08 10:02:29;;;;;;;11.13;3.72;;;;;;;8.43;64.04;99791.44;4657351;25;20021;-83
2022/04/08 10:05:01;;;;;;;8.90;3.90;;;;;;;8.69;63.99;99841.91;4702244;30;20043;-83
2022/04/08 10:07:28;;;;;;;12.70;3.63;;;;;;;8.63;64.88;99796.81;4702327;30;20066;-83
2022/04/08 10:10:00;;;;;;;12.15;3.33;;;;;;;8.73;64.06;99794.41;4702286;30;20092;-83
2022/04/08 10:21:41;;;;;;;12.70;3.80;;;;;;;9.11;64.46;99830.25;4702159;30;20056;-84
2022/04/08 10:24:55;;;;;;;11.18;4.38;;;;;;;9.05;64.05;99835.06;4702049;30;20033;-84
2022/04/08 10:28:05;;;;;;;11.90;4.07;;;;;;;8.96;63.90;99830.56;4700621;30;20076;-83
2022/04/08 10:34:42;;;;;;;11.10;3.55;;;;;;;9.10;63.51;99832.97;4648306;30;20049;-84
2022/04/08 10:40:14;;;;;;;11.05;3.97;;;;;;;7.77;64.72;99644.38;5070596;25;20057;-83
2022/04/08 10:51:22;;;;;;;12.63;3.72;;;;;;;8.97;63.64;99827.06;4666418;30;20038;-84
2022/04/08 11:01:03;;;;;;;13.15;4.00;;;;;;;8.38;62.20;99700.94;4648262;30;20075;-84
2022/04/08 11:03:33;;;;;;;9.98;4.40;;;;;;;8.25;61.65;99628.91;4648265;30;20395;-83
2022/04/08 11:06:24;;;;;;;11.20;3.65;;;;;;;9.63;61.71;99800.63;4647899;30;20138;-83
2022/04/08 11:08:52;;;;;;;13.63;4.05;;;;;;;9.82;60.66;99820.69;4647672;30;20056;-83
2022/04/08 11:14:54;;;;;;;9.63;3.60;;;;;;;8.49;60.78;99634.91;4648170;30;20128;-80
2022/04/08 11:17:20;;;;;;;10.73;3.72;;;;;;;9.46;60.38;99798.53;4648428;30;20062;-77
2022/04/08 11:19:49;;;;;;;11.10;4.30;;;;;;;9.45;61.33;99802.84;4666576;30;20030;-79
2022/04/08 11:22:15;;;;;;;10.07;3.70;;;;;;;9.44;61.11;99803.78;4666553;30;20484;-80
2022/04/08 11:24:40;;;;;;;13.10;3.95;;;;;;;9.13;61.47;99766.56;4666974;30;20066;-88
2022/04/08 11:27:05;;;;;;;10.40;4.25;;;;;;;9.35;60.90;99791.59;4666843;30;20433;-80
2022/04/08 11:29:31;;;;;;;14.82;4.18;;;;;;;9.31;60.46;99764.41;4666630;30;20445;-82
2022/04/08 11:32:10;;;;;;;11.10;4.25;;;;;;;9.63;61.58;99779.19;4665334;30;20089;-78
2022/04/08 11:34:37;;;;;;;8.82;4.30;;;;;;;9.56;60.34;99721.34;4666669;30;20090;-79
2022/04/08 11:37:03;;;;;;;8.80;3.88;;;;;;;10.18;59.09;99787.88;4666561;30;20456;-81
2022/04/08 11:39:31;;;;;;;9.40;4.32;;;;;;;9.90;58.51;99735.84;4666694;30;20038;-78
2022/04/08 11:41:58;;;;;;;9.57;3.92;;;;;;;9.90;57.34;99735.00;4666525;30;20031;-86
2022/04/08 11:44:29;;;;;;;8.23;3.85;;;;;;;9.90;58.80;99735.84;4650839;30;20027;-81
2022/04/08 11:47:05;;;;;;;11.50;3.90;;;;;;;9.72;58.50;99730.34;4666314;30;20081;-79
2022/04/08 11:49:46;;;;;;;9.13;3.97;;;;;;;9.32;59.22;99685.34;4665083;30;20061;-78
2022/04/08 11:52:11;;;;;;;10.05;4.20;;;;;;;8.80;59.94;99630.88;4666009;30;20125;-80
2022/04/08 11:55:37;;;;;;;8.48;3.92;;;;;;;9.50;60.37;99750.97;4650545;30;20449;-82
2022/04/08 11:58:20;;;;;;;8.98;3.63;;;;;;;8.49;61.13;99574.91;4666146;30;20168;-81
2022/04/08 12:01:52;;;;;;;12.93;3.70;;;;;;;8.68;59.26;99584.66;4666114;30;20062;-81
2022/04/08 12:04:31;;;;;;;10.05;4.28;;;;;;;9.24;60.67;99673.03;4579842;31;20056;-83
2022/04/08 12:06:57;;;;;;;8.85;4.20;;;;;;;8.53;60.22;99563.44;4580425;31;20060;-80
2022/04/08 12:09:41;;;;;;;15.65;4.63;;;;;;;9.34;61.16;99684.31;4580239;31;20523;-78
2022/04/08 12:12:51;;;;;;;9.75;4.05;;;;;;;8.70;58.64;99586.16;4580153;31;20462;-79
2022/04/08 12:15:22;;;;;;;10.52;3.97;;;;;;;9.49;58.89;99703.75;4563510;31;20055;-81
2022/04/08 12:17:49;;;;;;;10.75;3.80;;;;;;;9.61;57.86;99711.47;4563900;31;20094;-84
2022/04/08 12:23:55;;;;;;;10.55;4.30;;;;;;;9.64;58.68;99633.94;4498756;31;20476;-86
2022/04/08 12:30:12;;;;;;;12.73;4.70;;;;;;;10.43;57.76;99733.44;4499494;31;20058;-80
2022/04/08 12:32:43;;;;;;;10.48;4.68;;;;;;;9.72;58.16;99636.72;4499413;31;20073;-80
2022/04/08 12:36:03;;;;;;;12.27;5.05;;;;;;;10.52;57.79;99744.75;4487821;31;20050;-81
2022/04/08 12:42:14;;;;;;;17.67;5.20;;;;;;;10.30;55.59;99673.41;4496391;31;20065;-80
2022/04/08 12:44:40;;;;;;;10.32;4.65;;;;;;;10.30;55.98;99687.13;4508946;31;20133;-77
2022/04/08 12:47:05;;;;;;;11.52;4.80;;;;;;;10.15;56.39;99678.00;4530678;31;20056;-79
2022/04/08 12:50:20;;;;;;;10.23;4.90;;;;;;;9.51;57.07;99555.91;4530852;31;20107;-80
2022/04/08 12:52:51;;;;;;;14.20;5.57;;;;;;;9.47;56.29;99553.59;4472145;32;20492;-79
2022/04/08 12:55:28;;;;;;;13.20;4.70;;;;;;;9.70;56.71;99587.03;4483548;32;20047;-81
2022/04/08 12:58:55;;;;;;;;;;;;;;;;;;;;;
2022/04/08 13:01:21;;;;;;;11.38;4.85;;;;;;;9.75;56.69;99575.44;4608786;31;20044;-76
2022/04/08 13:03:57;;;;;;;10.00;4.63;;;;;;;9.59;53.97;99558.72;4614229;30;20047;-79
2022/04/08 13:06:30;;;;;;;9.57;4.22;;;;;;;10.58;53.68;99727.03;4613244;31;20166;-80
2022/04/08 13:09:32;;;;;;;8.82;4.55;;;;;;;10.69;54.81;99715.00;4612493;31;20107;-80
2022/04/08 13:22:38;;;;;;;10.05;4.47;;;;;;;10.31;53.08;99575.22;4794414;25;20058;-77
2022/04/08 13:25:16;;;;;;;10.52;4.60;;;;;;;10.33;54.06;99565.59;4666291;30;20045;-79
2022/04/08 13:27:57;;;;;;;8.45;4.70;;;;;;;10.94;53.94;99647.50;4664932;30;20035;-78
2022/04/08 13:30:41;;;;;;;10.45;4.80;;;;;;;10.97;54.12;99654.97;4665087;30;20041;-82
2022/04/08 13:33:24;;;;;;;9.50;4.03;;;;;;;10.39;53.91;99572.00;4665112;30;20090;-81
2022/04/08 13:36:00;;;;;;;9.15;3.40;;;;;;;10.28;52.50;99554.84;4665859;30;20477;-80
2022/04/08 13:42:16;;;;;;;6.95;2.80;;;;;;;11.00;52.56;99653.91;4667892;30;20054;-76
2022/04/08 13:48:44;;;;;;;7.30;3.38;;;;;;;10.17;53.12;99539.38;4654934;30;20518;-80
2022/04/08 13:51:10;;;;;;;6.57;3.20;;;;;;;11.26;51.00;99716.34;4615900;30;20040;-79
2022/04/08 13:53:35;;;;;;;8.10;2.65;;;;;;;11.33;49.98;99714.88;4615189;31;20043;-80
2022/04/08 13:56:00;;;;;;;7.78;2.40;;;;;;;10.97;48.94;99674.84;4615669;31;20082;-86
2022/04/08 13:58:26;;;;;;;11.63;2.55;;;;;;;10.65;48.03;99695.56;4615584;31;20040;-82
2022/04/08 14:00:51;;;;;;;6.38;2.40;;;;;;;10.47;50.11;99718.50;4615375;30;20044;-77
2022/04/08 14:03:16;;;;;;;8.48;2.65;;;;;;;10.18;50.61;99684.66;4615468;31;20434;-79
2022/04/08 14:05:42;;;;;;;10.43;3.20;;;;;;;10.43;50.90;99689.56;4615443;31;20047;-83
2022/04/08 14:08:08;;;;;;;10.57;2.60;;;;;;;10.59;49.00;99689.94;4614957;31;20111;-78
2022/04/08 14:10:34;;;;;;;10.60;2.92;;;;;;;10.55;49.49;99722.13;4615149;31;20036;-78
2022/04/08 14:13:03;;;;;;;6.18;2.60;;;;;;;10.29;50.32;99705.31;4615246;31;20048;-78
2022/04/08 14:15:29;;;;;;;6.40;2.40;;;;;;;10.41;50.69;99711.25;4615344;31;20047;-77
2022/04/08 14:17:54;;;;;;;9.80;3.00;;;;;;;10.74;51.96;99720.63;4614941;31;20063;-79
2022/04/08 14:20:20;;;;;;;9.18;3.00;;;;;;;10.84;50.47;99706.03;4614952;31;20258;-79
2022/04/08 14:22:45;;;;;;;10.55;2.78;;;;;;;10.99;50.82;99706.50;4700236;25;20090;-80
2022/04/08 14:25:11;;;;;;;12.65;3.25;;;;;;;11.18;50.21;99724.72;4701074;30;20056;-78
2022/04/08 14:27:36;;;;;;;10.90;2.97;;;;;;;10.98;50.64;99679.03;4701937;30;20104;-80
2022/04/08 14:30:02;;;;;;;6.40;2.55;;;;;;;10.96;51.30;99680.94;4702001;30;20074;-80
2022/04/08 14:32:33;;;;;;;8.02;3.05;;;;;;;11.15;51.75;99699.97;4702024;30;20135;-79
2022/04/08 14:34:58;;;;;;;7.33;2.67;;;;;;;11.11;50.47;99695.16;4701740;30;20042;-79
2022/04/08 14:37:24;;;;;;;9.52;2.95;;;;;;;11.08;50.72;99675.56;4701734;30;20799;-79
2022/04/08 14:39:49;;;;;;;9.48;2.40;;;;;;;11.18;50.75;99704.84;4701844;30;20045;-80
2022/04/08 14:42:14;;;;;;;8.23;2.63;;;;;;;10.86;49.70;99689.44;4701817;30;20041;-81
2022/04/08 14:44:46;;;;;;;7.72;2.20;;;;;;;10.85;49.92;99710.25;4701649;30;20037;-81
2022/04/08 14:47:11;;;;;;;7.20;2.45;;;;;;;10.90;49.88;99714.06;4701553;30;20042;-82
2022/04/08 14:49:36;;;;;;;7.55;2.10;;;;;;;10.42;49.89;99638.88;4701455;30;20091;-79
2022/04/08 14:52:02;;;;;;;8.10;2.20;;;;;;;10.80;49.17;99710.59;4701259;30;20033;-78
2022/04/08 14:54:27;;;;;;;8.40;2.05;;;;;;;10.53;50.14;99693.03;4701297;30;20479;-77
2022/04/08 14:56:52;;;;;;;7.13;2.50;;;;;;;10.50;52.72;99710.50;4701421;30;20037;-77
2022/04/08 14:59:18;;;;;;;7.38;2.38;;;;;;;10.39;52.21;99693.31;4700165;30;20049;-78
2022/04/08 15:01:44;;;;;;;7.57;2.03;;;;;;;10.44;51.96;99690.38;4701312;30;20091;-81
2022/04/08 15:04:12;;;;;;;7.07;1.80;;;;;;;10.50;50.41;99711.31;4701242;30;20036;-78
2022/04/08 15:06:37;;;;;;;5.40;1.63;;;;;;;10.47;49.67;99718.50;4700938;30;20038;-81
2022/04/08 15:09:03;;;;;;;6.90;1.80;;;;;;;10.03;50.91;99676.41;4701401;30;20041;-80
2022/04/08 15:11:29;;;;;;;4.63;1.63;;;;;;;10.37;50.95;99723.56;4700883;30;20121;-81
2022/04/08 15:13:54;;;;;;;6.35;1.60;;;;;;;10.06;48.52;99689.88;4701190;30;20504;-81
2022/04/08 15:16:20;;;;;;;5.65;1.73;;;;;;;10.12;50.08;99722.06;4701059;30;20076;-80
2022/04/08 15:18:52;;;;;;;7.43;1.90;;;;;;;10.07;50.35;99719.06;4685408;30;20029;-85
2022/04/08 15:21:18;;;;;;;8.23;2.03;;;;;;;10.13;50.25;99740.94;4700877;30;20502;-81
2022/04/08 15:23:43;;;;;;;7.13;1.98;;;;;;;9.95;49.35;99713.09;4700568;30;20050;-81
2022/04/08 15:26:17;;;;;;;6.15;1.52;;;;;;;10.04;49.27;99693.50;4700547;30;20054;-89
2022/04/08 15:29:03;;;;;;;7.00;1.80;;;;;;;10.15;49.92;99703.78;4700985;30;20069;-79
2022/04/08 15:31:52;;;;;;;5.80;1.80;;;;;;;9.16;50.46;99546.63;4700687;30;20064;-79
2022/04/08 15:34:26;;;;;;;5.22;1.80;;;;;;;9.10;49.85;99578.81;4700618;30;20529;-80
2022/04/08 15:36:52;;;;;;;7.05;2.30;;;;;;;9.16;50.47;99634.19;4700932;30;20423;-77
2022/04/08 15:40:05;;;;;;;6.00;1.70;;;;;;;8.66;50.53;99587.34;4700631;30;20034;-80
2022/04/08 15:42:31;;;;;;;6.07;1.55;;;;;;;8.51;47.72;99601.34;4647283;30;20043;-79
2022/04/08 15:45:11;;;;;;;6.55;1.52;;;;;;;8.37;49.65;99592.06;4647205;30;20058;-79
2022/04/08 15:47:58;;;;;;;4.85;1.40;;;;;;;9.34;49.92;99766.75;4647178;30;20470;-80
2022/04/08 15:50:38;;;;;;;8.55;1.80;;;;;;;8.88;50.47;99712.69;4647219;30;20438;-81
2022/04/08 15:53:26;;;;;;;6.10;1.70;;;;;;;8.08;51.28;99596.72;4647067;30;20043;-80
2022/04/08 15:55:52;;;;;;;5.07;1.77;;;;;;;8.97;50.20;99760.13;4645721;30;20441;-80
2022/04/08 15:58:17;;;;;;;7.28;1.48;;;;;;;8.80;50.86;99722.72;4646570;30;20038;-79
2022/04/08 16:00:42;;;;;;;4.35;1.70;;;;;;;8.97;51.63;99760.94;4632899;30;20054;-80
2022/04/08 16:03:07;;;;;;;4.80;1.88;;;;;;;9.06;50.64;99790.34;4646941;30;20556;-80
2022/04/08 16:05:33;;;;;;;7.80;1.50;;;;;;;9.07;51.30;99797.13;4646130;30;20138;-78
2022/04/08 16:07:58;;;;;;;5.00;1.48;;;;;;;8.99;51.82;99764.22;4646995;30;20054;-80
2022/04/08 16:10:24;;;;;;;4.13;1.50;;;;;;;8.97;50.50;99763.50;4646800;30;20038;-80
2022/04/08 16:12:49;;;;;;;7.25;1.50;;;;;;;8.91;50.71;99763.94;4685171;30;20182;-81
2022/04/08 16:15:14;;;;;;;3.97;1.33;;;;;;;8.97;50.48;99791.84;4700096;30;20042;-80
2022/04/08 16:17:47;;;;;;;6.97;1.55;;;;;;;8.86;51.05;99773.78;4700132;30;20048;-80
2022/04/08 16:20:46;;;;;;;6.28;1.50;;;;;;;8.09;50.59;99660.06;4699666;30;20034;-79
2022/04/08 16:26:51;;;;;;;6.82;1.67;;;;;;;8.43;52.00;99720.22;4606698;31;20143;-80
2022/04/08 16:33:07;;;;;;;5.45;2.03;;;;;;;7.81;53.18;99648.34;4563119;31;20053;-80
2022/04/08 16:36:00;;;;;;;6.43;2.10;;;;;;;8.74;53.95;99815.81;4547306;31;20408;-80
2022/04/08 16:38:42;;;;;;;6.20;2.08;;;;;;;7.58;55.06;99655.09;4547109;31;20065;-80
2022/04/08 16:41:22;;;;;;;;;;;;;;;8.67;54.85;99815.44;4547273;31;20589;-79
2022/04/08 16:43:48;;;;;;;5.18;1.80;;;;;;;7.44;55.22;99656.03;4547287;31;20088;-80
2022/04/08 16:46:22;;;;;;;6.13;2.05;;;;;;;7.45;55.38;99685.09;4547169;31;20501;-80
2022/04/08 16:48:49;;;;;;;7.47;1.90;;;;;;;7.30;56.11;99670.75;4547219;31;20045;-80
2022/04/08 16:51:24;;;;;;;7.20;2.10;;;;;;;7.23;56.83;99672.91;4546875;31;20056;-80
2022/04/08 16:57:27;;;;;;;6.00;2.30;;;;;;;7.73;58.52;99772.22;4546715;31;20424;-80
2022/04/08 17:16:57;;;;;;;9.70;3.03;;;;;;;6.85;58.24;99714.78;4697617;30;20180;-81
2022/04/08 17:20:03;;;;;;;4.90;2.03;;;;;;;7.73;58.72;99861.34;4714332;30;20296;-87
2022/04/08 17:22:51;;;;;;;5.65;1.98;;;;;;;6.56;59.79;99691.00;4714434;30;20049;-86